Time;durP1;ratioP1;P1;durP2;ratioP2;P2;SDS_P1;SDS_P2;PMS_P1;PMS_P2;Temp;Humidity;BMP_temperature;BMP_pressure;BME280_temperature;BME280_humidity;BME280_pressure;Samples;Min_cycle;Max_cycle;Signal;HPM_P1;HPM_P2
2022/03/06 00:00:50;;;;;;;30.33;21.98;;;;;;;3.31;58.27;102598.66;5173121;28;20411;-49
2022/03/06 00:03:23;;;;;;;31.38;22.95;;;;;;;3.42;58.23;102614.78;5167883;28;20828;-51
2022/03/06 00:05:55;;;;;;;30.00;22.08;;;;;;;3.49;58.02;102621.44;5178481;28;20434;-52
2022/03/06 00:08:28;;;;;;;30.67;23.63;;;;;;;3.50;58.11;102619.69;5172257;28;20905;-46
2022/03/06 00:11:00;;;;;;;33.47;22.92;;;;;;;3.52;58.24;102621.31;5171596;28;20414;-48
2022/03/06 00:13:34;;;;;;;32.55;24.00;;;;;;;3.50;58.04;102628.38;5166645;28;20870;-50
2022/03/06 00:16:07;;;;;;;30.77;23.27;;;;;;;3.44;58.27;102618.19;5172975;28;20422;-47
2022/03/06 00:18:40;;;;;;;30.10;22.77;;;;;;;3.47;58.12;102647.63;5169587;28;20512;-48
2022/03/06 00:21:13;;;;;;;32.72;24.50;;;;;;;3.52;58.08;102628.31;5175767;28;20512;-47
2022/03/06 00:23:46;;;;;;;33.45;24.65;;;;;;;3.53;58.40;102633.50;5168314;28;20457;-45
2022/03/06 00:26:19;;;;;;;32.00;24.93;;;;;;;3.34;58.19;102607.22;5167865;28;20516;-46
2022/03/06 00:28:53;;;;;;;33.85;25.10;;;;;;;3.49;58.40;102629.28;5175505;28;20414;-49
2022/03/06 00:31:25;;;;;;;32.25;23.95;;;;;;;3.58;58.37;102641.13;5169518;28;20509;-46
2022/03/06 00:33:58;;;;;;;33.40;23.97;;;;;;;3.57;58.69;102636.84;5178001;28;20884;-61
2022/03/06 00:36:30;;;;;;;36.10;26.38;;;;;;;3.59;58.39;102632.38;5178274;28;20417;-46
2022/03/06 00:39:03;;;;;;;36.27;25.73;;;;;;;3.60;58.57;102634.94;5170655;28;20430;-49
2022/03/06 00:41:36;;;;;;;31.25;24.58;;;;;;;3.56;58.50;102646.44;5182411;28;21940;-50
2022/03/06 00:44:10;;;;;;;33.58;26.23;;;;;;;3.60;58.35;102634.09;5179059;28;20948;-49
2022/03/06 00:46:42;;;;;;;32.97;23.48;;;;;;;3.60;58.41;102637.56;5173295;28;20424;-53
2022/03/06 00:49:15;;;;;;;32.47;24.95;;;;;;;3.63;58.48;102642.66;5179159;28;20467;-48
2022/03/06 00:51:47;;;;;;;33.10;24.25;;;;;;;3.65;58.48;102646.06;5177584;28;20418;-47
2022/03/06 00:54:20;;;;;;;30.85;24.48;;;;;;;3.69;58.37;102642.44;5172763;28;20982;-48
2022/03/06 00:56:53;;;;;;;32.55;25.48;;;;;;;3.66;58.35;102629.47;5173079;28;20467;-46
2022/03/06 00:59:32;;;;;;;32.85;25.88;;;;;;;3.78;58.76;102653.41;5180278;28;20516;-49
2022/03/06 01:02:07;;;;;;;36.58;26.30;;;;;;;3.63;58.53;102649.66;5168884;28;20405;-51
2022/03/06 01:04:40;;;;;;;31.40;23.85;;;;;;;3.76;58.47;102650.03;5174153;28;20464;-48
2022/03/06 01:07:12;;;;;;;32.20;24.40;;;;;;;3.77;58.68;102656.94;5175213;28;20431;-46
2022/03/06 01:09:45;;;;;;;30.48;24.58;;;;;;;3.76;58.75;102650.03;5170798;28;20468;-47
2022/03/06 01:12:18;;;;;;;33.08;25.02;;;;;;;3.77;58.98;102643.88;5171229;28;20421;-53
2022/03/06 01:14:51;;;;;;;29.42;24.08;;;;;;;3.83;58.74;102651.47;5181211;28;20907;-46
2022/03/06 01:17:24;;;;;;;30.40;23.38;;;;;;;3.82;58.59;102655.84;5171356;28;20817;-45
2022/03/06 01:19:57;;;;;;;32.23;24.93;;;;;;;3.91;58.53;102657.25;5177635;28;20411;-53
2022/03/06 01:22:29;;;;;;;28.20;22.85;;;;;;;3.91;58.88;102671.16;5178094;28;20507;-47
2022/03/06 01:25:02;;;;;;;31.30;23.60;;;;;;;3.79;58.88;102649.91;5172084;28;20460;-46
2022/03/06 01:27:34;;;;;;;29.85;22.27;;;;;;;3.90;58.86;102671.22;5171778;28;20530;-51
2022/03/06 01:30:12;;;;;;;27.92;22.73;;;;;;;3.87;58.53;102660.88;5176703;28;20467;-46
2022/03/06 01:32:45;;;;;;;25.10;20.38;;;;;;;3.84;58.59;102669.72;5175506;28;20490;-48
2022/03/06 01:35:19;;;;;;;27.80;22.60;;;;;;;3.81;58.57;102668.97;5174725;28;20417;-51
2022/03/06 01:37:51;;;;;;;30.58;22.45;;;;;;;3.89;58.84;102687.81;5176802;28;20435;-46
2022/03/06 01:40:24;;;;;;;27.45;22.08;;;;;;;3.87;58.74;102682.66;5172800;28;20500;-48
2022/03/06 01:42:57;;;;;;;30.60;22.63;;;;;;;3.93;58.81;102673.69;5171813;28;20768;-47
2022/03/06 01:45:30;;;;;;;30.42;21.90;;;;;;;3.95;58.78;102679.72;5171319;28;20775;-47
2022/03/06 01:48:08;;;;;;;26.25;20.77;;;;;;;3.97;59.20;102690.97;5171897;28;21027;-51
2022/03/06 01:50:41;;;;;;;27.27;21.33;;;;;;;3.91;58.77;102671.16;5177192;28;20914;-51
2022/03/06 01:53:14;;;;;;;25.08;20.60;;;;;;;4.03;58.95;102685.50;5178262;28;20440;-46
2022/03/06 01:55:47;;;;;;;26.70;21.55;;;;;;;4.04;58.59;102687.19;5171454;28;20971;-48
2022/03/06 01:58:19;;;;;;;24.42;21.20;;;;;;;4.09;58.68;102685.25;5173500;28;20599;-49
2022/03/06 02:00:53;;;;;;;30.30;20.60;;;;;;;3.88;58.54;102654.75;5171888;28;20444;-49
2022/03/06 02:03:26;;;;;;;26.15;20.60;;;;;;;4.07;58.73;102687.06;5171151;28;20417;-49
2022/03/06 02:05:58;;;;;;;26.83;20.77;;;;;;;4.03;58.71;102689.88;5176521;28;20427;-52
2022/03/06 02:08:31;;;;;;;23.17;19.33;;;;;;;4.00;58.63;102680.41;5169043;28;20427;-49
2022/03/06 02:11:03;;;;;;;29.00;20.17;;;;;;;4.04;58.60;102689.81;5162807;28;20535;-50
2022/03/06 02:13:35;;;;;;;23.35;19.98;;;;;;;4.08;58.31;102688.75;5177673;28;20424;-48
2022/03/06 02:16:10;;;;;;;24.27;19.83;;;;;;;4.10;58.42;102686.09;5169772;28;20488;-55
2022/03/06 02:18:42;;;;;;;26.70;22.27;;;;;;;4.11;58.17;102691.25;5173982;28;20452;-48
2022/03/06 02:21:16;;;;;;;25.10;20.70;;;;;;;4.04;58.43;102695.03;5177244;28;20441;-45
2022/03/06 02:23:49;;;;;;;23.70;19.65;;;;;;;4.15;58.47;102687.63;5174650;28;20500;-50
2022/03/06 02:26:21;;;;;;;23.55;20.38;;;;;;;4.15;58.03;102685.00;5172012;28;20988;-46
2022/03/06 02:28:53;;;;;;;24.33;20.33;;;;;;;4.14;58.20;102680.66;5178010;28;20496;-48
2022/03/06 02:31:26;;;;;;;23.98;20.00;;;;;;;4.10;58.01;102676.50;5178479;28;20491;-47
2022/03/06 02:33:59;;;;;;;26.15;19.92;;;;;;;4.05;58.28;102667.97;5169850;28;20436;-48
2022/03/06 02:36:32;;;;;;;22.63;19.13;;;;;;;4.05;58.41;102678.44;5174625;28;20889;-53
2022/03/06 02:39:05;;;;;;;25.52;19.55;;;;;;;4.03;58.09;102679.44;5166914;28;20936;-47
2022/03/06 02:41:38;;;;;;;23.20;19.42;;;;;;;3.99;58.16;102673.44;5172924;28;20442;-49
2022/03/06 02:44:10;;;;;;;26.58;19.73;;;;;;;3.88;57.94;102665.22;5174221;28;20426;-48
2022/03/06 02:46:46;;;;;;;26.35;20.27;;;;;;;3.91;58.01;102675.53;5172608;28;21043;-46
2022/03/06 02:49:19;;;;;;;23.17;19.42;;;;;;;3.89;58.05;102687.81;5170625;28;20419;-52
2022/03/06 02:51:53;;;;;;;23.65;19.83;;;;;;;3.78;58.21;102674.31;5176429;28;22307;-50
2022/03/06 02:54:26;;;;;;;22.92;19.55;;;;;;;3.73;58.06;102676.28;5175222;28;20515;-46
2022/03/06 02:56:58;;;;;;;22.47;18.87;;;;;;;3.48;58.14;102645.88;5174365;28;20458;-46
2022/03/06 02:59:30;;;;;;;23.85;18.45;;;;;;;3.64;58.07;102683.56;5181720;28;20502;-48
2022/03/06 03:02:04;;;;;;;24.90;18.13;;;;;;;3.62;58.37;102685.38;5170716;28;20434;-53
2022/03/06 03:04:39;;;;;;;22.98;19.63;;;;;;;3.60;58.42;102683.75;5181170;28;20397;-47
2022/03/06 03:07:13;;;;;;;24.02;17.63;;;;;;;3.60;58.05;102687.19;5175000;28;20435;-48
2022/03/06 03:09:46;;;;;;;22.08;17.25;;;;;;;3.60;58.02;102687.19;5172079;28;20413;-49
2022/03/06 03:12:18;;;;;;;22.70;17.88;;;;;;;3.54;58.39;102676.13;5169007;28;20439;-49
2022/03/06 03:14:50;;;;;;;23.85;18.35;;;;;;;3.55;58.19;102683.91;5174868;28;20432;-47
2022/03/06 03:17:23;;;;;;;21.60;17.85;;;;;;;3.53;58.48;102695.31;5170897;28;20501;-47
2022/03/06 03:19:55;;;;;;;21.77;18.00;;;;;;;3.55;58.09;102689.13;5175940;28;20497;-50
2022/03/06 03:22:29;;;;;;;19.33;15.25;;;;;;;3.55;58.11;102703.97;5167252;28;20452;-57
2022/03/06 03:25:01;;;;;;;19.77;16.58;;;;;;;3.54;58.19;102686.59;5174654;28;20494;-48
2022/03/06 03:27:35;;;;;;;20.48;16.10;;;;;;;3.52;58.19;102686.63;5169769;28;20506;-47
2022/03/06 03:30:10;;;;;;;23.65;17.70;;;;;;;3.55;58.01;102683.91;5174856;28;20501;-51
2022/03/06 03:32:43;;;;;;;21.47;15.63;;;;;;;3.50;58.38;102680.63;5169150;28;21475;-46
2022/03/06 03:35:15;;;;;;;19.58;14.75;;;;;;;3.47;58.17;102686.81;5173888;28;20507;-45
2022/03/06 03:37:49;;;;;;;17.80;14.15;;;;;;;3.46;58.12;102689.47;5170934;28;20433;-54
2022/03/06 03:40:21;;;;;;;19.58;15.27;;;;;;;3.42;57.90;102682.69;5173480;28;20458;-47
2022/03/06 03:42:54;;;;;;;19.92;15.15;;;;;;;3.40;58.19;102689.72;5169732;28;20415;-54
2022/03/06 03:45:26;;;;;;;18.33;14.88;;;;;;;3.39;58.04;102690.63;5168472;28;20536;-50
2022/03/06 03:47:59;;;;;;;19.40;15.02;;;;;;;3.36;58.33;102682.91;5169994;28;20515;-49
2022/03/06 03:50:31;;;;;;;15.75;12.85;;;;;;;3.35;58.42;102686.44;5174691;28;20414;-46
2022/03/06 03:53:05;;;;;;;18.83;12.32;;;;;;;3.33;58.30;102693.47;5165463;28;20416;-49
2022/03/06 03:55:38;;;;;;;15.30;13.40;;;;;;;3.33;58.09;102685.63;5174168;28;20427;-46
2022/03/06 03:58:10;;;;;;;16.65;13.00;;;;;;;3.36;57.95;102688.13;5169147;28;20422;-50
2022/03/06 04:00:43;;;;;;;17.25;13.43;;;;;;;3.34;57.89;102690.78;5171503;28;20438;-46
2022/03/06 04:03:15;;;;;;;20.17;13.43;;;;;;;3.31;58.24;102693.50;5172274;28;20845;-46
2022/03/06 04:05:48;;;;;;;18.05;14.13;;;;;;;3.32;58.27;102689.16;5174437;28;20491;-58
2022/03/06 04:08:22;;;;;;;17.10;14.43;;;;;;;3.30;58.04;102690.97;5173198;28;20420;-46
2022/03/06 04:10:59;;;;;;;18.60;15.23;;;;;;;3.23;57.95;102685.97;5168378;28;20955;-50
2022/03/06 04:13:31;;;;;;;16.58;13.40;;;;;;;3.28;57.82;102705.84;5178280;28;20505;-49
2022/03/06 04:16:05;;;;;;;18.92;15.85;;;;;;;3.23;57.86;102704.25;5170263;28;20411;-50
2022/03/06 04:19:11;;;;;;;17.48;13.60;;;;;;;3.21;57.99;102708.66;5171871;28;20495;-48
2022/03/06 04:21:44;;;;;;;20.90;15.77;;;;;;;3.15;58.14;102706.28;5178157;28;20407;-51
2022/03/06 04:24:18;;;;;;;20.50;14.68;;;;;;;3.14;58.00;102707.19;5166581;28;20479;-52
2022/03/06 04:26:50;;;;;;;20.45;15.57;;;;;;;3.08;57.79;102712.66;5171719;28;20553;-48
2022/03/06 04:29:22;;;;;;;21.95;18.65;;;;;;;3.11;57.64;102709.06;5173707;28;20545;-49
2022/03/06 04:31:55;;;;;;;20.73;16.85;;;;;;;3.07;57.77;102716.16;5178093;28;20467;-54
2022/03/06 04:34:27;;;;;;;23.40;17.75;;;;;;;3.06;57.58;102711.84;5175239;28;20464;-47
2022/03/06 04:37:00;;;;;;;20.98;16.92;;;;;;;2.97;57.93;102706.94;5179313;28;20421;-52
2022/03/06 04:39:34;;;;;;;22.35;17.75;;;;;;;2.97;57.77;102727.81;5177648;28;20549;-46
2022/03/06 04:42:07;;;;;;;26.63;18.83;;;;;;;2.92;57.91;102714.97;5177933;28;22927;-56
2022/03/06 04:44:40;;;;;;;22.80;19.15;;;;;;;2.95;57.82;102724.44;5180393;28;20879;-46
2022/03/06 04:47:12;;;;;;;19.73;16.60;;;;;;;2.94;57.96;102727.94;5177118;28;20513;-47
2022/03/06 04:49:45;;;;;;;24.38;18.85;;;;;;;2.89;57.60;102738.56;5174764;28;20507;-45
2022/03/06 04:52:17;;;;;;;21.15;18.75;;;;;;;2.87;57.71;102737.75;5179036;28;20515;-47
2022/03/06 04:54:51;;;;;;;21.13;16.75;;;;;;;2.62;57.75;102693.38;5174565;28;20521;-45
2022/03/06 04:57:24;;;;;;;21.58;17.05;;;;;;;2.84;57.95;102739.59;5177686;28;20419;-49
2022/03/06 04:59:56;;;;;;;26.23;19.67;;;;;;;2.83;57.75;102737.91;5170986;28;20725;-53
2022/03/06 05:02:29;;;;;;;22.90;18.05;;;;;;;2.82;57.97;102738.78;5171547;28;20435;-50
2022/03/06 05:05:01;;;;;;;21.63;17.77;;;;;;;2.80;57.89;102736.25;5176613;28;20801;-50
2022/03/06 05:07:34;;;;;;;20.20;16.75;;;;;;;2.81;58.01;102737.09;5178479;28;20438;-47
2022/03/06 05:10:10;;;;;;;23.55;18.83;;;;;;;2.80;57.88;102745.84;5164156;28;20416;-50
2022/03/06 05:12:43;;;;;;;21.48;18.90;;;;;;;2.78;58.02;102743.28;5173751;28;20811;-51
2022/03/06 05:15:16;;;;;;;22.63;18.25;;;;;;;2.77;57.89;102747.66;5177077;28;20426;-46
2022/03/06 05:17:49;;;;;;;20.45;17.15;;;;;;;2.75;57.92;102743.38;5170159;28;20817;-46
2022/03/06 05:20:21;;;;;;;20.92;17.83;;;;;;;2.72;57.90;102743.47;5174409;28;20437;-47
2022/03/06 05:22:53;;;;;;;22.50;17.67;;;;;;;2.74;57.97;102752.97;5176777;28;20478;-48
2022/03/06 05:25:28;;;;;;;24.33;18.73;;;;;;;2.57;57.85;102757.91;5175066;28;20469;-46
2022/03/06 05:28:00;;;;;;;23.37;18.07;;;;;;;2.73;58.14;102751.28;5176657;28;20549;-50
2022/03/06 05:30:33;;;;;;;21.15;16.00;;;;;;;2.69;58.17;102754.88;5173216;28;20433;-49
2022/03/06 05:33:05;;;;;;;22.37;14.97;;;;;;;2.69;58.09;102760.09;5169138;28;20428;-46
2022/03/06 05:35:38;;;;;;;21.90;16.60;;;;;;;2.69;58.34;102765.31;5182534;28;21075;-46
2022/03/06 05:38:10;;;;;;;19.38;14.90;;;;;;;2.66;58.21;102770.63;5181833;28;20911;-47
2022/03/06 05:40:44;;;;;;;17.70;13.85;;;;;;;2.67;58.38;102761.91;5170655;28;20424;-49
2022/03/06 05:43:18;;;;;;;16.05;14.35;;;;;;;2.69;58.27;102760.09;5169442;28;20424;-47
2022/03/06 05:45:52;;;;;;;17.67;14.10;;;;;;;2.70;58.33;102777.47;5177092;28;20427;-53
2022/03/06 05:48:25;;;;;;;15.93;11.03;;;;;;;2.70;58.28;102766.19;5168052;28;20757;-46
2022/03/06 05:50:58;;;;;;;17.92;13.32;;;;;;;2.76;57.96;102771.19;5163213;28;20822;-59
2022/03/06 05:53:31;;;;;;;23.40;11.98;;;;;;;2.73;58.23;102779.97;5174757;28;20426;-51
2022/03/06 05:56:05;;;;;;;17.27;10.73;;;;;;;2.78;58.13;102782.41;5171009;28;20431;-49
2022/03/06 05:58:38;;;;;;;14.10;12.45;;;;;;;2.82;57.98;102781.44;5177292;28;20428;-47
2022/03/06 06:01:12;;;;;;;19.50;12.30;;;;;;;2.84;58.41;102787.44;5175246;28;20423;-45
2022/03/06 06:03:45;;;;;;;14.05;11.27;;;;;;;2.86;58.15;102798.69;5172855;28;20432;-49
2022/03/06 06:06:18;;;;;;;17.20;12.15;;;;;;;2.87;58.12;102800.38;5166500;28;20453;-49
2022/03/06 06:08:50;;;;;;;15.90;10.32;;;;;;;2.83;58.28;102804.00;5174815;28;20504;-50
2022/03/06 06:11:24;;;;;;;13.63;10.43;;;;;;;2.87;58.15;102804.75;5163289;28;23595;-48
2022/03/06 06:13:57;;;;;;;12.10;9.50;;;;;;;2.87;58.02;102809.97;5175057;28;20983;-50
2022/03/06 06:16:30;;;;;;;14.63;10.73;;;;;;;2.87;58.26;102810.81;5167250;28;20484;-54
2022/03/06 06:19:02;;;;;;;14.15;10.75;;;;;;;2.90;57.83;102810.72;5174508;28;21023;-51
2022/03/06 06:21:35;;;;;;;16.03;10.43;;;;;;;2.87;58.00;102809.97;5171030;28;20420;-51
2022/03/06 06:24:08;;;;;;;11.18;9.48;;;;;;;2.94;57.79;102819.28;5173303;28;20797;-45
2022/03/06 06:26:42;;;;;;;12.70;8.80;;;;;;;2.92;58.01;102813.28;5178030;28;20424;-46
2022/03/06 06:29:15;;;;;;;11.10;7.68;;;;;;;3.00;57.89;102826.91;5173503;28;20437;-47
2022/03/06 06:31:48;;;;;;;11.77;8.90;;;;;;;3.04;58.11;102828.53;5170057;28;20816;-45
2022/03/06 06:34:20;;;;;;;9.80;7.47;;;;;;;2.99;57.83;102825.22;5171475;28;20866;-47
2022/03/06 06:36:57;;;;;;;8.10;6.32;;;;;;;3.09;58.12;102841.41;5174632;28;22027;-51
2022/03/06 06:39:30;;;;;;;10.00;7.95;;;;;;;3.11;58.07;102835.25;5176550;28;20731;-46
2022/03/06 06:42:05;;;;;;;9.38;6.13;;;;;;;3.17;58.01;102845.47;5174039;28;20431;-48
2022/03/06 06:44:38;;;;;;;6.75;6.05;;;;;;;3.21;57.72;102833.16;5165635;28;20417;-52
2022/03/06 06:47:10;;;;;;;8.27;6.53;;;;;;;3.23;57.71;102850.47;5172802;28;20800;-48
2022/03/06 06:49:43;;;;;;;6.55;5.85;;;;;;;3.28;57.50;102852.06;5170719;28;20509;-46
2022/03/06 06:52:15;;;;;;;9.50;5.95;;;;;;;3.31;57.64;102851.97;5179509;28;20545;-48
2022/03/06 06:54:48;;;;;;;9.00;6.43;;;;;;;3.32;57.75;102851.09;5173488;28;20515;-48
2022/03/06 06:57:21;;;;;;;9.17;6.77;;;;;;;3.34;57.46;102852.72;5174755;28;20473;-50
2022/03/06 06:59:54;;;;;;;10.50;7.88;;;;;;;3.35;57.40;102850.97;5169572;28;20883;-52
2022/03/06 07:02:26;;;;;;;8.68;7.05;;;;;;;3.40;57.33;102854.25;5170996;28;20508;-46
2022/03/06 07:04:59;;;;;;;10.32;8.43;;;;;;;3.21;57.23;102809.66;5167137;28;20478;-51
2022/03/06 07:07:31;;;;;;;13.05;8.07;;;;;;;3.57;57.23;102869.34;5169575;28;20492;-51
2022/03/06 07:10:05;;;;;;;11.82;8.77;;;;;;;3.63;57.06;102864.75;5162095;28;20464;-48
2022/03/06 07:12:47;;;;;;;11.77;8.00;;;;;;;3.67;57.04;102868.97;5170237;28;20506;-53
2022/03/06 07:15:19;;;;;;;11.93;9.50;;;;;;;3.74;56.66;102866.13;5171224;28;20429;-50
2022/03/06 07:17:51;;;;;;;11.02;8.10;;;;;;;3.81;56.57;102873.69;5167427;28;20496;-48
2022/03/06 07:20:24;;;;;;;12.20;8.85;;;;;;;3.86;56.76;102876.13;5167686;28;20499;-46
2022/03/06 07:22:57;;;;;;;10.20;8.27;;;;;;;3.81;56.90;102873.69;5166739;28;20504;-52
2022/03/06 07:25:31;;;;;;;9.90;7.75;;;;;;;3.87;56.55;102885.66;5170013;28;20416;-49
2022/03/06 07:28:05;;;;;;;13.93;9.35;;;;;;;3.91;56.80;102895.13;5175838;28;20762;-49
2022/03/06 07:30:38;;;;;;;15.53;8.43;;;;;;;3.92;56.76;102894.19;5173167;28;20420;-51
2022/03/06 07:33:10;;;;;;;12.25;7.90;;;;;;;4.00;56.50;102899.16;5175867;28;20505;-50
2022/03/06 07:35:43;;;;;;;12.13;8.45;;;;;;;4.06;56.53;102902.41;5176263;28;20441;-47
2022/03/06 07:38:15;;;;;;;12.02;8.57;;;;;;;4.11;56.60;102908.28;5174613;28;20969;-49
2022/03/06 07:40:48;;;;;;;10.88;7.38;;;;;;;4.16;56.55;102915.97;5178709;28;20447;-48
2022/03/06 07:43:21;;;;;;;13.67;8.17;;;;;;;4.18;56.16;102914.19;5172075;28;20449;-49
2022/03/06 07:45:54;;;;;;;11.27;8.40;;;;;;;4.26;56.11;102911.25;5171146;28;25905;-47
2022/03/06 07:48:27;;;;;;;12.53;7.87;;;;;;;3.64;56.53;102808.97;5180943;28;20542;-48
2022/03/06 07:50:59;;;;;;;11.20;7.47;;;;;;;4.37;56.36;102922.19;5182190;28;20407;-45
2022/03/06 07:53:31;;;;;;;9.63;7.73;;;;;;;4.38;56.04;102916.03;5180154;28;20475;-46
2022/03/06 07:56:04;;;;;;;12.68;8.05;;;;;;;4.44;56.07;102922.78;5180276;28;21051;-47
2022/03/06 07:58:38;;;;;;;11.73;7.45;;;;;;;4.51;55.98;102921.63;5183430;28;20410;-46
2022/03/06 08:01:11;;;;;;;8.00;7.20;;;;;;;4.62;55.84;102915.06;5170200;28;20431;-48
2022/03/06 08:03:43;;;;;;;9.82;6.40;;;;;;;4.80;55.95;102923.09;5182481;28;20505;-49
2022/03/06 08:06:15;;;;;;;9.38;6.63;;;;;;;5.19;55.42;102923.25;5177229;28;20505;-50
2022/03/06 08:08:48;;;;;;;8.25;6.22;;;;;;;5.59;55.09;102929.44;5169646;28;20527;-46
2022/03/06 08:11:20;;;;;;;8.68;6.57;;;;;;;6.14;54.36;102926.19;5196796;28;21063;-47
2022/03/06 08:13:54;;;;;;;8.98;5.97;;;;;;;6.81;53.88;102930.03;5178349;28;20505;-50
2022/03/06 08:16:28;;;;;;;7.15;5.88;;;;;;;7.10;53.29;102934.72;5179155;28;20802;-49
2022/03/06 08:19:00;;;;;;;9.05;5.72;;;;;;;7.51;52.82;102936.19;5181776;28;20967;-48
2022/03/06 08:21:34;;;;;;;8.35;5.35;;;;;;;7.52;52.64;102927.38;5176507;28;20968;-53
2022/03/06 08:24:07;;;;;;;8.40;5.07;;;;;;;7.78;52.36;102936.56;5174573;28;20421;-49
2022/03/06 08:26:39;;;;;;;8.15;5.18;;;;;;;8.09;51.98;102909.47;5180991;28;20986;-48
2022/03/06 08:29:14;;;;;;;6.50;4.65;;;;;;;8.83;51.31;102944.94;5177622;28;20804;-46
2022/03/06 08:31:46;;;;;;;7.70;4.65;;;;;;;9.30;50.54;102946.63;5176878;28;20445;-50
2022/03/06 08:34:19;;;;;;;8.67;5.70;;;;;;;9.52;49.69;102947.06;5172353;28;20490;-47
2022/03/06 08:36:51;;;;;;;5.93;4.32;;;;;;;9.80;49.15;102924.28;5163398;28;20412;-49
2022/03/06 08:39:24;;;;;;;7.40;4.78;;;;;;;10.41;48.49;102943.44;5166413;28;20432;-52
2022/03/06 08:41:56;;;;;;;7.82;3.85;;;;;;;11.08;47.38;102953.09;5166508;28;20540;-50
2022/03/06 08:44:30;;;;;;;7.35;4.40;;;;;;;11.05;47.16;102948.03;5176646;28;20406;-47
2022/03/06 08:47:03;;;;;;;8.93;3.85;;;;;;;10.71;47.37;102946.72;5169728;28;20508;-47
2022/03/06 08:49:35;;;;;;;7.80;3.97;;;;;;;10.69;47.12;102953.09;5159609;28;20416;-53
2022/03/06 08:52:10;;;;;;;6.55;3.63;;;;;;;10.75;47.03;102955.34;5161736;28;20986;-50
2022/03/06 08:54:43;;;;;;;5.55;3.92;;;;;;;10.65;47.08;102948.94;5167951;28;20478;-46
2022/03/06 08:57:15;;;;;;;6.65;4.32;;;;;;;11.08;46.26;102954.91;5164892;28;20420;-53
2022/03/06 08:59:49;;;;;;;5.28;3.85;;;;;;;11.15;45.73;102942.13;5166567;28;20491;-48
2022/03/06 09:02:22;;;;;;;8.55;4.00;;;;;;;11.02;45.46;102932.34;5171201;28;20423;-55
2022/03/06 09:04:54;;;;;;;4.38;3.20;;;;;;;11.12;45.39;102950.25;5172174;28;20857;-52
2022/03/06 09:07:27;;;;;;;5.80;3.70;;;;;;;10.98;45.23;102945.91;5165134;28;20505;-47
2022/03/06 09:10:00;;;;;;;7.00;3.67;;;;;;;10.65;45.61;102960.34;5166389;28;20425;-50
2022/03/06 09:12:32;;;;;;;4.70;3.07;;;;;;;10.79;45.20;102952.38;5170030;28;20416;-57
2022/03/06 09:15:08;;;;;;;5.72;3.15;;;;;;;10.77;45.00;102911.13;5170826;28;20486;-49
2022/03/06 09:17:41;;;;;;;4.80;3.13;;;;;;;11.23;44.31;102913.38;5179665;28;20420;-50
2022/03/06 09:20:14;;;;;;;3.45;2.50;;;;;;;11.18;44.52;102941.91;5168457;28;20517;-56
2022/03/06 09:22:47;;;;;;;6.82;3.33;;;;;;;10.69;45.01;102938.06;5167441;28;20455;-57
2022/03/06 09:25:19;;;;;;;5.00;3.10;;;;;;;10.28;45.48;102941.56;5165533;28;20432;-52
2022/03/06 09:27:52;;;;;;;6.50;3.58;;;;;;;10.19;45.64;102941.25;5164701;28;20566;-51
2022/03/06 09:30:26;;;;;;;6.03;3.50;;;;;;;10.12;45.98;102954.81;5170483;28;20515;-54
2022/03/06 09:32:58;;;;;;;6.27;3.27;;;;;;;9.47;46.09;102917.47;5176929;28;20428;-56
2022/03/06 09:35:31;;;;;;;6.78;3.40;;;;;;;9.52;46.55;102957.59;5165616;28;20427;-50
2022/03/06 09:38:03;;;;;;;6.57;3.10;;;;;;;9.36;46.79;102955.03;5171405;28;20494;-50
2022/03/06 09:40:37;;;;;;;4.93;2.90;;;;;;;9.18;46.92;102954.31;5168216;28;20423;-54
2022/03/06 09:43:18;;;;;;;4.55;2.80;;;;;;;9.01;47.36;102957.03;5171131;28;20453;-52
2022/03/06 09:45:55;;;;;;;5.35;3.40;;;;;;;8.67;47.46;102943.16;5166704;28;20768;-54
2022/03/06 09:48:30;;;;;;;7.88;3.38;;;;;;;8.49;47.96;102958.22;5168254;28;20904;-49
2022/03/06 09:51:03;;;;;;;6.17;3.37;;;;;;;8.25;47.90;102944.56;5176152;28;21152;-47
2022/03/06 09:53:38;;;;;;;9.88;3.42;;;;;;;7.93;47.94;102943.66;5162093;28;20813;-50
2022/03/06 09:56:10;;;;;;;6.47;3.60;;;;;;;7.63;47.93;102961.88;5166938;28;20432;-50
2022/03/06 09:58:43;;;;;;;4.38;3.50;;;;;;;7.37;48.43;102966.69;5163719;28;20567;-47
2022/03/06 10:01:17;;;;;;;5.15;3.80;;;;;;;7.10;48.24;102971.50;5174007;28;20603;-51
2022/03/06 10:03:49;;;;;;;6.30;3.95;;;;;;;6.88;48.24;102969.06;5173028;28;20519;-47
2022/03/06 10:06:23;;;;;;;5.93;3.83;;;;;;;6.75;48.42;102962.72;5169316;28;20543;-50
2022/03/06 10:09:05;;;;;;;6.18;4.10;;;;;;;6.61;48.31;102959.88;5165772;28;20495;-52
2022/03/06 10:11:40;;;;;;;8.20;4.43;;;;;;;6.62;48.08;102969.44;5161229;28;20423;-49
2022/03/06 10:14:14;;;;;;;5.22;3.80;;;;;;;6.63;47.97;102971.16;5170078;28;20567;-49
2022/03/06 10:17:10;;;;;;;7.80;4.43;;;;;;;6.52;48.13;102952.44;5172308;28;20843;-49
2022/03/06 10:20:05;;;;;;;9.82;4.53;;;;;;;6.56;48.11;102981.06;5161746;28;20417;-50
2022/03/06 10:22:40;;;;;;;5.85;5.25;;;;;;;6.52;48.00;102978.69;5157925;28;20497;-53
2022/03/06 10:25:16;;;;;;;5.40;4.20;;;;;;;6.51;47.97;102971.72;5167090;28;20518;-57
2022/03/06 10:27:53;;;;;;;5.75;4.70;;;;;;;6.52;47.90;102979.53;5164606;28;20514;-53
2022/03/06 10:30:29;;;;;;;5.43;3.78;;;;;;;6.61;47.63;102989.59;5169576;28;20880;-49
2022/03/06 10:33:07;;;;;;;7.20;4.60;;;;;;;6.49;47.60;102984.91;5174732;28;20421;-54
2022/03/06 10:35:42;;;;;;;9.27;4.80;;;;;;;6.33;47.78;103000.50;5161683;28;20440;-48
2022/03/06 10:38:26;;;;;;;7.97;5.10;;;;;;;6.50;47.39;102981.34;5172136;28;20556;-50
2022/03/06 10:41:02;;;;;;;6.15;4.65;;;;;;;6.59;47.50;102993.22;5169115;28;20427;-53
2022/03/06 10:43:35;;;;;;;5.93;4.60;;;;;;;6.58;47.35;102991.53;5161580;28;20404;-49
2022/03/06 10:46:11;;;;;;;6.47;4.82;;;;;;;6.49;47.32;102986.69;5167216;28;20424;-49
2022/03/06 10:48:59;;;;;;;6.80;5.10;;;;;;;6.48;47.47;102985.84;5170583;28;20512;-50
2022/03/06 10:51:39;;;;;;;9.50;5.25;;;;;;;6.66;47.21;102992.03;5165451;28;20417;-56
2022/03/06 10:54:14;;;;;;;5.50;4.10;;;;;;;6.89;47.01;102993.56;5163139;28;20516;-49
2022/03/06 10:56:50;;;;;;;9.07;4.77;;;;;;;6.68;46.75;102982.28;5167542;28;20473;-49
2022/03/06 10:59:25;;;;;;;6.45;4.45;;;;;;;6.65;46.93;102995.56;5159800;28;20439;-52
2022/03/06 11:01:58;;;;;;;8.05;5.40;;;;;;;6.58;47.12;102999.41;5163268;28;20412;-52
2022/03/06 11:04:32;;;;;;;6.22;4.75;;;;;;;6.46;47.19;102979.81;5174946;28;20490;-54
2022/03/06 11:07:05;;;;;;;5.82;4.38;;;;;;;6.41;47.06;102985.28;5163747;28;20643;-50
2022/03/06 11:09:38;;;;;;;7.85;5.38;;;;;;;6.35;47.00;102996.06;5162250;28;20443;-57
2022/03/06 11:12:11;;;;;;;6.05;5.03;;;;;;;6.24;47.33;102980.78;5166576;28;20426;-49
2022/03/06 11:14:44;;;;;;;8.63;5.30;;;;;;;6.19;47.09;102988.03;5160438;28;21090;-53
2022/03/06 11:17:18;;;;;;;6.05;5.13;;;;;;;6.27;46.75;102971.91;5160667;28;20447;-53
2022/03/06 11:19:52;;;;;;;7.10;4.78;;;;;;;6.46;46.65;102985.91;5161405;28;20420;-47
2022/03/06 11:22:33;;;;;;;7.05;4.78;;;;;;;6.58;46.51;102983.66;5162192;28;20488;-51
2022/03/06 11:25:11;;;;;;;7.88;5.07;;;;;;;6.51;46.75;102983.09;5158168;28;21212;-53
2022/03/06 11:28:10;;;;;;;10.63;5.35;;;;;;;6.40;46.64;102985.34;5161023;28;20424;-52
2022/03/06 11:30:43;;;;;;;6.88;3.97;;;;;;;6.34;46.67;102983.84;5154309;28;20555;-59
2022/03/06 11:33:18;;;;;;;8.50;4.03;;;;;;;6.33;46.62;102984.75;5157168;28;20781;-49
2022/03/06 11:35:52;;;;;;;7.30;4.40;;;;;;;6.29;46.65;102988.47;5157749;28;20429;-50
2022/03/06 11:38:42;;;;;;;6.20;4.95;;;;;;;6.16;46.55;102971.53;5155542;28;20428;-52
2022/03/06 11:41:15;;;;;;;5.07;4.20;;;;;;;6.30;46.37;102973.56;5160210;28;20791;-48
2022/03/06 11:43:54;;;;;;;5.57;4.32;;;;;;;6.30;46.61;102977.03;5162853;28;20450;-51
2022/03/06 11:46:28;;;;;;;4.60;4.18;;;;;;;6.29;46.43;102977.97;5160030;28;20790;-53
2022/03/06 11:49:09;;;;;;;5.63;4.03;;;;;;;6.37;46.52;102975.81;5168811;28;20482;-50
2022/03/06 11:51:49;;;;;;;5.97;4.05;;;;;;;6.26;46.69;102951.84;5161148;28;20443;-50
2022/03/06 11:54:25;;;;;;;6.18;4.00;;;;;;;6.41;46.53;102980.03;5165335;28;20408;-51